Time;durP1;ratioP1;P1;durP2;ratioP2;P2;SDS_P1;SDS_P2;PMS_P1;PMS_P2;Temp;Humidity;BMP_temperature;BMP_pressure;BME280_temperature;BME280_humidity;BME280_pressure;Samples;Min_cycle;Max_cycle;Signal;HPM_P1;HPM_P2
2023/07/02 00:00:05;;;;;;;13.45;4.57;;;16.30;99.90;;;;;;4952888;28;20490;-50
2023/07/02 00:02:31;;;;;;;12.60;5.22;;;16.20;99.90;;;;;;4952803;28;20402;-50
2023/07/02 00:04:56;;;;;;;10.75;5.50;;;16.20;99.90;;;;;;4952831;28;20039;-47
2023/07/02 00:07:22;;;;;;;13.75;5.22;;;16.20;99.90;;;;;;4952058;28;20095;-47
2023/07/02 00:09:48;;;;;;;13.82;5.70;;;16.20;99.90;;;;;;4952849;28;20095;-49
2023/07/02 00:12:14;;;;;;;15.40;6.20;;;16.20;99.90;;;;;;4952513;28;20051;-50
2023/07/02 00:14:39;;;;;;;14.48;6.78;;;16.20;99.90;;;;;;4964130;28;20082;-51
2023/07/02 00:17:06;;;;;;;16.38;5.72;;;16.10;99.90;;;;;;4971819;28;20095;-50
2023/07/02 00:19:32;;;;;;;13.63;5.97;;;16.10;99.90;;;;;;4966995;28;20047;-50
2023/07/02 00:21:58;;;;;;;15.70;6.70;;;16.10;99.90;;;;;;4952205;28;20118;-48
2023/07/02 00:24:23;;;;;;;15.13;6.93;;;16.10;99.90;;;;;;4934758;28;20047;-50
2023/07/02 00:26:49;;;;;;;14.88;7.05;;;16.10;99.90;;;;;;4950139;28;20181;-51
2023/07/02 00:29:15;;;;;;;15.65;7.05;;;16.00;99.90;;;;;;4953100;28;20071;-47
2023/07/02 00:31:40;;;;;;;19.08;7.65;;;16.00;99.90;;;;;;4952898;28;20074;-49
2023/07/02 00:34:06;;;;;;;18.98;7.70;;;16.00;99.90;;;;;;4955991;28;20086;-52
2023/07/02 00:36:32;;;;;;;17.10;5.55;;;16.00;99.90;;;;;;4956111;28;20035;-51
2023/07/02 00:38:58;;;;;;;17.50;7.47;;;15.90;99.90;;;;;;4955971;28;20081;-50
2023/07/02 00:41:24;;;;;;;18.63;7.38;;;15.80;99.90;;;;;;4955905;28;20087;-51
2023/07/02 00:43:54;;;;;;;19.65;7.85;;;15.90;99.90;;;;;;4955896;28;20513;-50
2023/07/02 00:46:21;;;;;;;17.48;7.63;;;15.80;99.90;;;;;;4955950;28;20051;-50
2023/07/02 00:48:54;;;;;;;20.25;7.55;;;15.80;99.90;;;;;;4955762;28;20046;-50
2023/07/02 00:51:25;;;;;;;16.77;8.27;;;15.80;99.90;;;;;;4955533;28;20123;-50
2023/07/02 00:53:54;;;;;;;21.92;7.90;;;15.70;99.90;;;;;;4937958;28;20114;-50
2023/07/02 00:56:21;;;;;;;17.33;7.30;;;15.70;99.90;;;;;;4955346;28;20431;-50
2023/07/02 00:58:50;;;;;;;19.63;7.90;;;15.60;99.90;;;;;;4955512;28;20043;-48
2023/07/02 01:01:19;;;;;;;18.38;7.55;;;15.60;99.90;;;;;;4938050;28;20055;-49
2023/07/02 01:03:56;;;;;;;16.77;7.80;;;15.50;99.90;;;;;;4955672;28;20045;-52
2023/07/02 01:06:27;;;;;;;17.88;7.93;;;15.50;99.90;;;;;;4955407;28;20039;-48
2023/07/02 01:08:55;;;;;;;15.65;8.02;;;15.50;99.90;;;;;;4965031;28;20612;-45
2023/07/02 01:11:26;;;;;;;18.80;8.50;;;15.50;99.90;;;;;;4963917;28;20102;-48
2023/07/02 01:13:54;;;;;;;19.65;7.82;;;15.40;99.90;;;;;;4954374;28;20535;-51
2023/07/02 01:16:21;;;;;;;20.05;8.45;;;15.30;99.90;;;;;;4955298;28;20043;-48
2023/07/02 01:18:50;;;;;;;17.10;7.68;;;15.30;99.90;;;;;;4954874;28;20043;-50
2023/07/02 01:21:16;;;;;;;18.88;7.93;;;15.30;99.90;;;;;;4955297;28;20043;-49
2023/07/02 01:23:43;;;;;;;18.30;7.97;;;15.20;99.90;;;;;;4955210;28;20427;-48
2023/07/02 01:26:09;;;;;;;23.05;8.00;;;15.20;99.90;;;;;;4955023;28;20043;-50
2023/07/02 01:28:36;;;;;;;20.10;7.72;;;15.20;99.90;;;;;;4954812;28;20039;-46
2023/07/02 01:31:05;;;;;;;19.83;7.80;;;15.10;99.90;;;;;;4954818;28;20047;-50
2023/07/02 01:33:31;;;;;;;18.08;7.68;;;15.00;99.90;;;;;;4954852;28;20035;-49
2023/07/02 01:35:57;;;;;;;23.92;9.02;;;15.00;99.90;;;;;;4955058;28;20050;-52
2023/07/02 01:38:22;;;;;;;22.73;8.32;;;14.90;99.90;;;;;;4954863;28;20035;-48
2023/07/02 01:40:48;;;;;;;20.50;8.32;;;14.80;99.90;;;;;;4954661;28;20031;-50
2023/07/02 01:43:14;;;;;;;21.10;8.70;;;14.90;99.90;;;;;;4954561;28;20167;-50
2023/07/02 01:45:41;;;;;;;26.80;9.65;;;14.80;99.90;;;;;;4953163;28;20130;-49
2023/07/02 01:48:07;;;;;;;24.20;8.68;;;14.80;99.90;;;;;;4954343;28;20094;-48
2023/07/02 01:50:33;;;;;;;20.50;9.10;;;14.80;99.90;;;;;;4954715;28;20031;-50
2023/07/02 01:52:59;;;;;;;22.88;9.18;;;14.80;99.90;;;;;;4954582;28;20050;-50
2023/07/02 01:55:25;;;;;;;19.60;8.50;;;14.80;99.90;;;;;;4972281;28;20463;-49
2023/07/02 01:57:51;;;;;;;23.42;6.78;;;14.70;99.90;;;;;;4957124;28;20169;-49
2023/07/02 02:00:17;;;;;;;23.90;8.95;;;14.70;99.90;;;;;;4954512;28;20047;-49
2023/07/02 02:02:43;;;;;;;25.00;9.43;;;14.70;99.90;;;;;;4955578;28;20050;-48
2023/07/02 02:05:09;;;;;;;27.35;9.20;;;14.60;99.90;;;;;;4954206;28;20105;-49
2023/07/02 02:07:38;;;;;;;22.50;8.90;;;14.60;99.90;;;;;;4954456;28;20043;-52
2023/07/02 02:10:04;;;;;;;25.08;9.50;;;14.60;99.90;;;;;;4953755;28;20042;-49
2023/07/02 02:12:30;;;;;;;22.00;9.25;;;14.60;99.90;;;;;;4921135;28;20051;-47
2023/07/02 02:14:56;;;;;;;22.52;9.07;;;14.50;99.90;;;;;;4936679;28;20047;-48
2023/07/02 02:17:23;;;;;;;19.23;9.77;;;14.50;99.90;;;;;;4954393;28;20439;-48
2023/07/02 02:19:49;;;;;;;23.85;9.75;;;14.50;99.90;;;;;;4966248;28;20047;-51
2023/07/02 02:22:15;;;;;;;21.38;9.48;;;14.40;99.90;;;;;;4973296;28;20034;-51
2023/07/02 02:24:42;;;;;;;23.27;9.30;;;14.40;99.90;;;;;;4973259;28;20192;-51
2023/07/02 02:27:08;;;;;;;21.30;9.82;;;14.30;99.90;;;;;;4961041;28;20553;-49
2023/07/02 02:29:34;;;;;;;20.73;9.27;;;14.20;99.90;;;;;;4973097;28;20047;-50
2023/07/02 02:32:00;;;;;;;22.10;9.05;;;14.20;99.90;;;;;;4973075;28;20042;-49
2023/07/02 02:34:26;;;;;;;24.80;7.15;;;14.10;99.90;;;;;;4973081;28;20535;-50
2023/07/02 02:36:51;;;;;;;23.38;9.65;;;14.10;99.90;;;;;;4937855;28;20046;-50
2023/07/02 02:39:17;;;;;;;21.88;9.27;;;14.10;99.90;;;;;;4953902;28;20028;-47
2023/07/02 02:41:43;;;;;;;22.75;7.20;;;14.10;99.90;;;;;;4951643;28;20055;-49
2023/07/02 02:44:09;;;;;;;21.27;8.98;;;14.00;99.90;;;;;;4953268;28;20031;-50
2023/07/02 02:46:34;;;;;;;24.35;9.65;;;14.10;99.90;;;;;;4953687;28;20140;-52
2023/07/02 02:49:00;;;;;;;24.38;9.25;;;14.10;99.90;;;;;;4953604;28;20047;-47
2023/07/02 02:51:26;;;;;;;22.60;9.55;;;14.20;99.90;;;;;;4936167;28;20049;-48
2023/07/02 02:53:51;;;;;;;18.73;8.52;;;14.20;99.90;;;;;;4935612;28;20051;-48
2023/07/02 02:56:17;;;;;;;25.70;9.43;;;14.20;99.90;;;;;;4952813;28;20043;-50
2023/07/02 02:58:44;;;;;;;22.33;9.20;;;14.20;99.90;;;;;;4957852;28;20034;-50
2023/07/02 03:01:12;;;;;;;24.60;8.90;;;14.20;99.90;;;;;;4972767;28;20038;-51
2023/07/02 03:03:39;;;;;;;24.63;9.23;;;14.30;99.90;;;;;;4972662;28;20131;-48
2023/07/02 03:06:05;;;;;;;23.80;9.73;;;14.30;99.90;;;;;;4972370;28;20387;-51
2023/07/02 03:08:31;;;;;;;21.20;8.55;;;14.30;99.90;;;;;;4972542;28;20114;-51
2023/07/02 03:10:57;;;;;;;27.95;7.20;;;14.40;99.90;;;;;;4972117;28;20114;-50
2023/07/02 03:13:22;;;;;;;24.90;8.77;;;14.40;99.90;;;;;;4972044;28;20482;-49
2023/07/02 03:15:48;;;;;;;18.17;8.55;;;14.30;99.90;;;;;;4936218;28;20418;-49
2023/07/02 03:18:14;;;;;;;27.10;7.10;;;14.30;99.90;;;;;;4935675;28;20347;-49
2023/07/02 03:20:39;;;;;;;22.83;9.13;;;14.40;99.90;;;;;;4953190;28;20099;-49
2023/07/02 03:23:05;;;;;;;21.73;8.25;;;14.40;99.90;;;;;;4952878;28;20446;-49
2023/07/02 03:25:31;;;;;;;22.00;8.48;;;14.40;99.90;;;;;;4953243;28;20043;-50
2023/07/02 03:27:56;;;;;;;23.33;9.07;;;14.30;99.90;;;;;;4949964;28;20047;-48
2023/07/02 03:30:22;;;;;;;23.30;9.15;;;14.40;99.90;;;;;;4952852;28;20082;-50
2023/07/02 03:32:48;;;;;;;22.42;6.50;;;14.40;99.90;;;;;;4952939;28;20439;-48
2023/07/02 03:35:13;;;;;;;26.20;9.40;;;14.30;99.90;;;;;;4935550;28;20455;-48
2023/07/02 03:37:43;;;;;;;25.92;9.68;;;14.20;99.90;;;;;;4951605;28;20035;-50
2023/07/02 03:40:09;;;;;;;24.23;8.65;;;14.30;99.90;;;;;;4952025;28;20098;-46
2023/07/02 03:42:35;;;;;;;22.08;8.63;;;14.20;99.90;;;;;;4952643;28;20035;-49
2023/07/02 03:45:00;;;;;;;22.45;8.30;;;14.30;99.90;;;;;;4934647;28;20043;-48
2023/07/02 03:47:26;;;;;;;20.58;8.80;;;14.30;99.90;;;;;;4952302;28;20054;-50
2023/07/02 03:49:52;;;;;;;23.73;8.73;;;14.20;99.90;;;;;;4952001;28;20503;-50
2023/07/02 03:52:17;;;;;;;22.77;8.60;;;14.20;99.90;;;;;;4952153;28;20043;-51
2023/07/02 03:54:43;;;;;;;24.52;8.98;;;14.20;99.90;;;;;;4952243;28;20059;-51
2023/07/02 03:57:09;;;;;;;21.98;8.90;;;14.20;99.90;;;;;;4952576;28;20043;-46
2023/07/02 03:59:35;;;;;;;23.15;8.77;;;14.20;99.90;;;;;;4952655;28;20279;-51
2023/07/02 04:02:00;;;;;;;19.35;6.55;;;14.20;99.90;;;;;;4952765;28;20494;-50
2023/07/02 04:04:26;;;;;;;20.88;8.00;;;14.20;99.90;;;;;;4952850;28;20043;-51
2023/07/02 04:06:52;;;;;;;24.67;8.50;;;14.30;99.90;;;;;;4955000;28;20122;-50
2023/07/02 04:09:18;;;;;;;22.88;8.93;;;14.30;99.90;;;;;;4970310;28;20394;-50
2023/07/02 04:11:44;;;;;;;22.83;8.52;;;14.30;99.90;;;;;;4975648;28;20049;-47
2023/07/02 04:14:10;;;;;;;20.52;8.50;;;14.30;99.90;;;;;;4975766;28;20070;-50
2023/07/02 04:16:35;;;;;;;25.00;8.63;;;14.30;99.90;;;;;;4975713;28;20038;-46
2023/07/02 04:19:01;;;;;;;22.67;9.45;;;14.30;99.90;;;;;;4975518;28;20066;-48
2023/07/02 04:21:26;;;;;;;23.85;8.55;;;14.30;99.90;;;;;;4955468;28;20043;-49
2023/07/02 04:23:52;;;;;;;24.42;9.30;;;14.40;99.90;;;;;;4955776;28;20042;-49
2023/07/02 04:26:18;;;;;;;22.40;9.15;;;14.50;99.90;;;;;;4955884;28;20039;-50
2023/07/02 04:28:44;;;;;;;22.77;8.55;;;14.50;99.90;;;;;;4955975;28;20055;-51
2023/07/02 04:31:10;;;;;;;24.10;9.23;;;14.50;99.90;;;;;;4969601;28;20078;-50
2023/07/02 04:33:36;;;;;;;27.08;7.20;;;14.50;99.90;;;;;;4939853;28;20073;-51
2023/07/02 04:36:03;;;;;;;23.08;9.18;;;14.60;99.90;;;;;;4956190;28;20031;-50
2023/07/02 04:38:29;;;;;;;30.33;9.57;;;14.70;99.90;;;;;;4955852;28;20395;-51
2023/07/02 04:41:01;;;;;;;25.52;9.40;;;14.70;99.90;;;;;;4956160;28;20046;-50
2023/07/02 04:43:29;;;;;;;20.63;8.50;;;14.80;99.90;;;;;;4955535;28;20123;-49
2023/07/02 04:45:56;;;;;;;27.85;7.22;;;14.80;99.90;;;;;;4956035;28;20095;-51
2023/07/02 04:48:21;;;;;;;27.77;9.70;;;14.80;99.90;;;;;;4955536;28;20126;-48
2023/07/02 04:50:47;;;;;;;23.73;9.02;;;14.90;99.90;;;;;;4938446;28;20126;-50
2023/07/02 04:53:13;;;;;;;23.73;6.65;;;14.90;99.90;;;;;;4938106;28;20074;-48
2023/07/02 04:55:38;;;;;;;27.17;9.45;;;14.90;99.90;;;;;;4953910;28;20418;-49
2023/07/02 04:58:04;;;;;;;19.98;6.35;;;14.90;99.90;;;;;;4955259;28;20035;-50
2023/07/02 05:00:30;;;;;;;22.50;7.45;;;14.90;99.90;;;;;;4955663;28;20050;-49
2023/07/02 05:02:55;;;;;;;27.08;7.22;;;14.90;99.90;;;;;;4954404;28;20043;-47
2023/07/02 05:05:21;;;;;;;22.02;8.27;;;14.90;99.90;;;;;;4938099;28;20397;-51
2023/07/02 05:07:47;;;;;;;22.20;8.77;;;15.00;99.90;;;;;;4953173;28;20388;-47
2023/07/02 05:10:13;;;;;;;23.17;8.82;;;15.10;99.90;;;;;;4955406;28;20039;-48
2023/07/02 05:12:38;;;;;;;29.08;9.30;;;15.20;99.90;;;;;;4955348;28;20055;-48
2023/07/02 05:15:05;;;;;;;21.48;8.10;;;15.20;99.90;;;;;;4955005;28;20361;-48
2023/07/02 05:17:34;;;;;;;25.92;8.70;;;15.20;99.90;;;;;;4954762;28;20063;-50
2023/07/02 05:20:00;;;;;;;22.88;8.40;;;15.30;99.90;;;;;;4955120;28;20126;-50
2023/07/02 05:22:26;;;;;;;25.58;8.20;;;15.30;99.90;;;;;;4955096;28;20047;-49
2023/07/02 05:24:52;;;;;;;22.58;8.38;;;15.40;99.90;;;;;;4955343;28;20403;-51
2023/07/02 05:27:17;;;;;;;24.80;8.20;;;15.40;99.90;;;;;;4954826;28;20467;-50
2023/07/02 05:29:43;;;;;;;21.77;8.23;;;15.40;99.90;;;;;;4953421;28;20097;-51
2023/07/02 05:32:09;;;;;;;22.15;8.68;;;15.40;99.90;;;;;;4954892;28;20099;-49
2023/07/02 05:34:35;;;;;;;21.25;8.45;;;15.50;99.90;;;;;;4955116;28;20038;-46
2023/07/02 05:37:00;;;;;;;22.48;9.25;;;15.60;99.90;;;;;;4937705;28;20065;-49
2023/07/02 05:39:26;;;;;;;23.40;8.40;;;15.60;99.90;;;;;;4954822;28;20043;-49
2023/07/02 05:41:52;;;;;;;25.52;6.07;;;15.60;99.90;;;;;;4954804;28;20043;-49
2023/07/02 05:44:18;;;;;;;28.00;9.10;;;15.70;99.90;;;;;;4954921;28;20039;-47
2023/07/02 05:46:44;;;;;;;23.35;7.70;;;15.70;99.90;;;;;;4954789;28;20043;-51
2023/07/02 05:49:10;;;;;;;21.80;8.50;;;15.80;99.90;;;;;;4954692;28;20099;-49
2023/07/02 05:51:36;;;;;;;21.02;8.52;;;15.80;99.90;;;;;;4950691;28;20047;-51
2023/07/02 05:54:01;;;;;;;23.02;8.65;;;15.90;99.90;;;;;;4954668;28;20091;-49
2023/07/02 05:56:27;;;;;;;20.73;8.30;;;15.90;99.90;;;;;;4953977;28;20107;-51
2023/07/02 05:58:53;;;;;;;26.60;8.60;;;15.90;99.90;;;;;;4954714;28;20099;-50
2023/07/02 06:01:18;;;;;;;24.15;8.95;;;16.00;99.90;;;;;;4954349;28;20398;-52
2023/07/02 06:03:45;;;;;;;21.88;8.27;;;16.00;99.90;;;;;;4954275;28;20395;-50
2023/07/02 06:06:11;;;;;;;22.83;8.18;;;16.10;99.90;;;;;;4954308;28;20047;-49
2023/07/02 06:08:37;;;;;;;20.42;7.70;;;16.10;99.90;;;;;;4954470;28;20047;-50
2023/07/02 06:11:03;;;;;;;22.55;6.28;;;16.10;99.90;;;;;;4954024;28;20050;-52
2023/07/02 06:13:28;;;;;;;22.45;7.90;;;16.20;99.90;;;;;;4954331;28;20126;-51
2023/07/02 06:15:54;;;;;;;22.13;8.02;;;16.20;99.90;;;;;;4952656;28;20046;-51
2023/07/02 06:18:19;;;;;;;25.40;8.07;;;16.20;99.90;;;;;;4954161;28;20513;-49
2023/07/02 06:20:46;;;;;;;21.75;6.20;;;16.30;99.90;;;;;;4935457;28;20380;-51
2023/07/02 06:23:12;;;;;;;17.60;7.53;;;16.30;99.90;;;;;;4953886;28;20039;-50
2023/07/02 06:25:37;;;;;;;26.35;7.38;;;16.40;99.90;;;;;;4954353;28;20042;-50
2023/07/02 06:28:03;;;;;;;19.65;7.20;;;16.50;99.90;;;;;;4935994;28;20147;-49
2023/07/02 06:30:29;;;;;;;20.10;7.30;;;16.50;99.90;;;;;;4953248;28;20391;-47
2023/07/02 06:32:55;;;;;;;22.30;7.18;;;16.50;99.90;;;;;;4953593;28;20050;-48
2023/07/02 06:35:21;;;;;;;23.95;7.60;;;16.50;99.90;;;;;;4953209;28;20483;-48
2023/07/02 06:37:47;;;;;;;20.45;7.40;;;16.50;99.90;;;;;;4952293;28;20031;-48
2023/07/02 06:40:13;;;;;;;22.58;7.32;;;16.60;99.90;;;;;;4953926;28;20103;-49
2023/07/02 06:42:39;;;;;;;19.58;6.47;;;16.60;99.90;;;;;;4971218;28;20046;-50
2023/07/02 06:45:06;;;;;;;19.83;6.60;;;16.70;99.90;;;;;;4952682;28;20058;-52
2023/07/02 06:47:32;;;;;;;20.50;7.03;;;16.80;99.90;;;;;;4953546;28;20597;-51
2023/07/02 06:49:58;;;;;;;20.85;6.70;;;16.80;99.90;;;;;;4936345;28;20067;-51
2023/07/02 06:52:24;;;;;;;16.40;6.85;;;16.90;99.90;;;;;;4953564;28;20495;-52
2023/07/02 06:54:50;;;;;;;22.10;7.35;;;16.90;99.90;;;;;;4953584;28;20066;-50
2023/07/02 06:57:16;;;;;;;18.20;6.68;;;16.90;99.90;;;;;;4953956;28;20134;-50
2023/07/02 06:59:42;;;;;;;15.82;6.18;;;17.00;99.90;;;;;;4952720;28;20134;-51
2023/07/02 07:02:07;;;;;;;16.25;6.88;;;17.10;99.90;;;;;;4951723;28;20368;-52
2023/07/02 07:04:34;;;;;;;18.58;6.65;;;17.10;99.90;;;;;;4950992;28;20068;-51
2023/07/02 07:07:03;;;;;;;14.55;6.28;;;17.00;99.90;;;;;;4952723;28;20058;-47
2023/07/02 07:09:29;;;;;;;17.80;7.22;;;16.90;99.90;;;;;;4953506;28;20513;-47
2023/07/02 07:11:55;;;;;;;18.38;6.70;;;17.00;99.90;;;;;;4953459;28;20279;-50
2023/07/02 07:14:21;;;;;;;17.15;6.50;;;17.00;99.90;;;;;;4948087;28;20050;-52
2023/07/02 07:16:47;;;;;;;20.63;5.90;;;17.10;99.90;;;;;;4944447;28;20023;-50
2023/07/02 07:19:13;;;;;;;18.10;6.72;;;17.20;99.90;;;;;;4926482;28;20050;-47
2023/07/02 07:21:39;;;;;;;14.48;5.93;;;17.20;99.90;;;;;;4943892;28;20435;-48
2023/07/02 07:24:05;;;;;;;12.05;5.20;;;17.20;99.90;;;;;;4945164;28;20035;-53
2023/07/02 07:26:31;;;;;;;15.02;5.90;;;17.10;99.90;;;;;;4946589;28;20041;-51
2023/07/02 07:28:57;;;;;;;13.10;5.20;;;17.00;99.90;;;;;;4949447;28;20047;-50
2023/07/02 07:31:24;;;;;;;14.77;5.50;;;17.00;99.90;;;;;;4942714;28;20061;-50
2023/07/02 07:33:49;;;;;;;14.43;5.10;;;17.00;99.90;;;;;;4944070;28;20031;-51
2023/07/02 07:36:15;;;;;;;15.15;5.10;;;17.10;99.90;;;;;;4949426;28;20036;-50
2023/07/02 07:38:43;;;;;;;15.43;4.53;;;17.10;99.90;;;;;;4943820;28;20047;-49
2023/07/02 07:41:09;;;;;;;14.52;3.70;;;17.20;99.90;;;;;;4942631;28;20130;-49
2023/07/02 07:43:35;;;;;;;15.23;4.82;;;17.30;99.90;;;;;;4925589;28;20146;-50
2023/07/02 07:46:00;;;;;;;14.60;4.82;;;17.30;99.90;;;;;;4942062;28;20035;-52
2023/07/02 07:48:26;;;;;;;17.30;5.50;;;17.40;99.90;;;;;;4944180;28;20031;-52
2023/07/02 07:50:52;;;;;;;12.75;4.88;;;17.50;99.90;;;;;;4909361;28;20043;-50
2023/07/02 07:53:17;;;;;;;15.43;4.68;;;17.60;99.90;;;;;;4938964;28;20035;-48
2023/07/02 07:55:43;;;;;;;14.73;4.68;;;17.60;99.90;;;;;;4944783;28;20503;-51
2023/07/02 07:58:09;;;;;;;10.85;4.55;;;17.60;99.90;;;;;;4951905;28;20474;-51
2023/07/02 08:00:34;;;;;;;11.70;4.60;;;17.50;99.90;;;;;;4938407;28;20039;-50
2023/07/02 08:03:01;;;;;;;10.32;3.65;;;17.50;99.90;;;;;;4941444;28;20047;-50
2023/07/02 08:05:26;;;;;;;12.13;4.30;;;17.60;99.90;;;;;;4942327;28;20039;-48
2023/07/02 08:07:53;;;;;;;11.85;4.32;;;17.70;99.90;;;;;;4943024;28;20095;-52
2023/07/02 08:10:19;;;;;;;10.20;3.33;;;17.90;99.90;;;;;;4942609;28;20462;-52
2023/07/02 08:12:47;;;;;;;8.32;2.65;;;17.90;99.90;;;;;;4942905;28;20066;-48
2023/07/02 08:15:12;;;;;;;9.32;3.20;;;17.80;99.90;;;;;;4935010;28;20118;-47
2023/07/02 08:17:38;;;;;;;9.77;3.35;;;17.70;99.90;;;;;;4940560;28;20637;-51
2023/07/02 08:20:04;;;;;;;9.50;3.95;;;17.80;99.90;;;;;;4938825;28;20548;-50
2023/07/02 08:22:30;;;;;;;9.30;3.67;;;17.90;99.90;;;;;;4940300;28;20881;-51
2023/07/02 08:24:56;;;;;;;9.70;3.22;;;18.10;99.90;;;;;;4938197;28;20039;-50
2023/07/02 08:27:23;;;;;;;12.15;3.42;;;18.20;99.90;;;;;;4941107;28;20043;-51
2023/07/02 08:29:49;;;;;;;13.73;3.70;;;18.20;99.90;;;;;;4942993;28;20091;-53
2023/07/02 08:32:15;;;;;;;13.77;4.30;;;18.20;99.90;;;;;;4942809;28;20737;-50
2023/07/02 08:34:41;;;;;;;10.57;3.63;;;18.20;99.90;;;;;;4942508;28;20551;-50
2023/07/02 08:37:07;;;;;;;10.50;4.13;;;18.10;99.90;;;;;;4942005;28;20131;-49
2023/07/02 08:39:33;;;;;;;10.07;3.70;;;18.10;99.90;;;;;;4942630;28;20043;-49
2023/07/02 08:41:58;;;;;;;12.55;3.83;;;18.10;99.90;;;;;;4942339;28;20094;-51
2023/07/02 08:44:26;;;;;;;11.70;3.88;;;18.10;99.90;;;;;;4943564;28;20058;-48
2023/07/02 08:46:55;;;;;;;10.43;3.45;;;18.10;99.90;;;;;;4923886;28;20047;-51
2023/07/02 08:49:20;;;;;;;11.23;4.28;;;17.90;99.90;;;;;;4941821;28;20105;-49
2023/07/02 08:51:47;;;;;;;13.38;5.05;;;17.70;99.90;;;;;;4942366;28;20083;-47
2023/07/02 08:54:14;;;;;;;16.83;5.53;;;17.60;99.90;;;;;;4945846;28;20146;-48
2023/07/02 08:56:40;;;;;;;14.05;5.15;;;17.50;99.90;;;;;;4944479;28;20059;-49
2023/07/02 08:59:09;;;;;;;14.10;4.90;;;17.40;99.90;;;;;;4945162;28;20051;-50
2023/07/02 09:01:52;;;;;;;13.23;4.85;;;17.40;99.90;;;;;;4944832;28;20388;-52
2023/07/02 09:04:19;;;;;;;17.05;5.07;;;17.50;99.90;;;;;;4945917;28;20043;-52
2023/07/02 09:06:46;;;;;;;14.73;5.40;;;17.50;99.90;;;;;;4944847;28;20035;-53
2023/07/02 09:09:12;;;;;;;13.93;4.72;;;17.50;99.90;;;;;;4943689;28;20113;-52
2023/07/02 09:11:50;;;;;;;11.35;4.45;;;17.50;99.90;;;;;;4946401;28;20126;-52
2023/07/02 09:14:30;;;;;;;18.92;5.50;;;17.50;99.90;;;;;;4945668;28;20035;-51
2023/07/02 09:17:08;;;;;;;15.52;4.53;;;17.50;99.90;;;;;;4947029;28;20386;-51
2023/07/02 09:19:36;;;;;;;17.20;4.70;;;17.50;99.90;;;;;;4945767;28;20419;-49
2023/07/02 09:22:02;;;;;;;14.02;5.15;;;17.50;99.90;;;;;;4945568;28;20057;-48
2023/07/02 09:24:30;;;;;;;13.27;4.90;;;17.50;99.90;;;;;;4946590;28;20508;-53
2023/07/02 09:27:01;;;;;;;12.95;4.25;;;17.60;99.90;;;;;;4945297;28;20126;-49
2023/07/02 09:29:29;;;;;;;12.05;4.18;;;17.70;99.90;;;;;;4944475;28;20082;-50
2023/07/02 09:32:02;;;;;;;12.60;4.20;;;17.80;99.90;;;;;;4945121;28;20098;-48
2023/07/02 09:34:32;;;;;;;11.95;4.22;;;18.10;99.90;;;;;;4945893;28;20110;-52
2023/07/02 09:36:59;;;;;;;11.00;4.10;;;18.60;99.90;;;;;;4946279;28;20039;-50
2023/07/02 09:39:32;;;;;;;7.57;3.80;;;18.80;99.90;;;;;;4945989;28;20051;-53
2023/07/02 09:42:00;;;;;;;13.00;4.60;;;18.90;99.90;;;;;;4945753;28;20035;-49
2023/07/02 09:44:34;;;;;;;12.30;4.10;;;18.80;99.90;;;;;;4945000;28;20069;-52
2023/07/02 09:47:07;;;;;;;16.60;4.63;;;18.70;99.90;;;;;;4944508;28;20050;-50
2023/07/02 09:49:38;;;;;;;9.90;3.38;;;18.50;99.90;;;;;;4927384;28;20075;-49
2023/07/02 09:52:15;;;;;;;9.55;3.63;;;18.40;99.90;;;;;;4943237;28;20050;-50
2023/07/02 09:54:41;;;;;;;9.82;3.45;;;18.30;99.90;;;;;;4945216;28;20082;-51
2023/07/02 09:57:07;;;;;;;10.70;3.88;;;18.30;99.90;;;;;;4945206;28;20027;-48
2023/07/02 09:59:33;;;;;;;10.05;3.35;;;18.30;99.90;;;;;;4945474;28;20050;-50
2023/07/02 10:01:59;;;;;;;9.05;3.33;;;18.40;99.90;;;;;;4946251;28;20079;-48
2023/07/02 10:04:25;;;;;;;12.85;3.92;;;18.50;99.90;;;;;;4945066;28;20043;-50
2023/07/02 10:06:55;;;;;;;8.95;3.30;;;18.80;99.90;;;;;;4945573;28;20067;-49
2023/07/02 10:09:44;;;;;;;14.80;3.90;;;18.90;99.90;;;;;;4944613;28;20050;-51
2023/07/02 10:12:25;;;;;;;9.88;3.58;;;19.10;99.90;;;;;;4943580;28;20574;-51
2023/07/02 10:14:53;;;;;;;10.88;3.80;;;19.30;99.90;;;;;;4946036;28;20047;-50
2023/07/02 10:17:28;;;;;;;10.30;3.67;;;19.50;99.90;;;;;;4945330;28;20035;-53
2023/07/02 10:19:55;;;;;;;11.18;3.67;;;19.50;99.90;;;;;;4945302;28;20495;-49
2023/07/02 10:22:21;;;;;;;9.00;3.35;;;19.40;99.90;;;;;;4943599;28;20049;-49
2023/07/02 10:24:56;;;;;;;12.45;3.38;;;19.50;99.90;;;;;;4946010;28;20070;-50
2023/07/02 10:27:39;;;;;;;8.90;3.50;;;19.80;99.90;;;;;;4949797;28;20487;-50
2023/07/02 10:30:07;;;;;;;9.60;3.38;;;19.80;99.90;;;;;;4950829;28;20542;-51
2023/07/02 10:32:35;;;;;;;9.13;3.28;;;19.90;99.90;;;;;;4934050;28;20411;-51
2023/07/02 10:35:20;;;;;;;9.85;3.72;;;20.10;99.90;;;;;;4951939;28;20477;-51
2023/07/02 10:37:46;;;;;;;13.98;3.60;;;20.20;99.90;;;;;;4950829;28;20043;-49
2023/07/02 10:40:12;;;;;;;11.88;3.55;;;20.10;99.90;;;;;;4934470;28;20372;-51
2023/07/02 10:42:51;;;;;;;12.35;3.70;;;20.10;99.90;;;;;;4951924;28;20133;-47
2023/07/02 10:45:18;;;;;;;10.45;3.42;;;20.20;99.90;;;;;;4951583;28;20168;-50
2023/07/02 10:47:44;;;;;;;9.52;3.13;;;20.30;99.90;;;;;;4948078;28;20043;-51
2023/07/02 10:50:14;;;;;;;10.50;3.10;;;20.40;99.90;;;;;;4951084;28;20051;-49
2023/07/02 10:52:40;;;;;;;8.70;2.95;;;20.40;99.90;;;;;;4949952;28;20113;-50
2023/07/02 10:55:06;;;;;;;9.05;3.17;;;20.40;99.90;;;;;;4951791;28;20035;-51
2023/07/02 10:57:32;;;;;;;9.10;3.38;;;20.40;99.90;;;;;;4951145;28;20043;-50
2023/07/02 11:00:08;;;;;;;9.93;3.22;;;20.60;99.90;;;;;;4950492;28;20915;-50
2023/07/02 11:02:37;;;;;;;10.25;3.55;;;20.70;99.90;;;;;;4950159;28;20055;-50
2023/07/02 11:05:06;;;;;;;12.77;3.70;;;20.90;99.90;;;;;;4950601;28;20483;-52
2023/07/02 11:07:32;;;;;;;11.57;3.33;;;20.90;99.90;;;;;;4952439;28;20039;-51
2023/07/02 11:09:58;;;;;;;12.43;3.50;;;21.00;99.90;;;;;;4952572;28;20055;-52
2023/07/02 11:12:31;;;;;;;9.88;3.38;;;21.00;99.90;;;;;;4936594;29;20043;-51
2023/07/02 11:15:17;;;;;;;8.20;2.90;;;20.90;99.90;;;;;;4952961;28;20039;-50
2023/07/02 11:17:43;;;;;;;12.25;3.60;;;20.90;99.90;;;;;;4953349;28;20275;-51
2023/07/02 11:20:10;;;;;;;10.73;3.30;;;21.00;99.90;;;;;;4952943;28;20035;-50
2023/07/02 11:22:37;;;;;;;14.60;3.45;;;21.10;99.90;;;;;;4952850;28;20098;-49
2023/07/02 11:25:16;;;;;;;10.70;3.03;;;21.10;99.90;;;;;;4953020;28;20523;-52
2023/07/02 11:27:42;;;;;;;12.23;3.08;;;21.30;99.90;;;;;;4963714;28;20039;-52
2023/07/02 11:30:09;;;;;;;11.23;3.42;;;21.30;99.90;;;;;;4952709;28;20042;-52
2023/07/02 11:32:48;;;;;;;9.20;3.53;;;21.10;99.90;;;;;;4952585;28;20098;-51
2023/07/02 11:35:15;;;;;;;12.13;3.70;;;20.90;99.90;;;;;;4953172;28;20070;-51
2023/07/02 11:37:41;;;;;;;11.23;3.17;;;20.70;99.90;;;;;;4953014;28;20380;-49
2023/07/02 11:40:07;;;;;;;12.70;2.78;;;20.60;99.90;;;;;;4953101;28;20125;-51
2023/07/02 11:42:33;;;;;;;10.00;2.65;;;20.30;99.60;;;;;;4952583;28;20131;-50
2023/07/02 11:44:58;;;;;;;10.15;2.58;;;20.10;99.20;;;;;;4950118;28;20122;-51
2023/07/02 11:47:25;;;;;;;7.90;2.42;;;19.90;99.20;;;;;;4945932;28;20050;-53
2023/07/02 11:49:50;;;;;;;10.30;2.92;;;19.80;99.20;;;;;;4933067;28;20078;-52
2023/07/02 11:52:16;;;;;;;8.40;3.17;;;19.80;99.70;;;;;;4928423;28;20083;-50
2023/07/02 11:54:42;;;;;;;8.93;2.72;;;19.80;99.00;;;;;;4949692;28;20555;-52
2023/07/02 11:57:08;;;;;;;6.78;3.03;;;19.70;99.00;;;;;;4950844;28;20035;-51
2023/07/02 11:59:34;;;;;;;10.27;2.95;;;19.90;99.40;;;;;;4948935;28;20110;-52
2023/07/02 12:02:00;;;;;;;7.45;2.63;;;20.20;99.60;;;;;;4930412;28;20047;-52
2023/07/02 12:04:25;;;;;;;10.52;2.90;;;20.30;99.10;;;;;;4949984;28;20084;-50
2023/07/02 12:06:52;;;;;;;7.80;3.10;;;20.50;98.80;;;;;;4950412;28;20031;-52
2023/07/02 12:09:18;;;;;;;10.52;2.90;;;20.30;98.10;;;;;;4950913;28;20380;-50
2023/07/02 12:11:45;;;;;;;9.52;3.45;;;20.30;98.20;;;;;;4932187;28;20054;-48
2023/07/02 12:14:11;;;;;;;8.07;3.15;;;20.60;98.70;;;;;;4950571;28;20058;-51
2023/07/02 12:16:36;;;;;;;10.98;3.13;;;20.70;98.80;;;;;;4948597;28;20043;-51
2023/07/02 12:19:02;;;;;;;11.32;3.40;;;20.70;99.30;;;;;;4951929;28;20046;-51
2023/07/02 12:21:28;;;;;;;8.55;3.88;;;20.60;99.10;;;;;;4951619;28;20035;-52
2023/07/02 12:23:53;;;;;;;10.35;3.13;;;20.60;99.60;;;;;;4952140;28;20093;-51
2023/07/02 12:26:19;;;;;;;9.80;2.95;;;20.40;99.10;;;;;;4933359;28;20054;-49
2023/07/02 12:28:45;;;;;;;8.93;2.67;;;20.30;98.70;;;;;;4955411;28;20040;-52
2023/07/02 12:31:12;;;;;;;7.20;2.80;;;20.10;98.70;;;;;;4955604;28;20039;-50
2023/07/02 12:33:38;;;;;;;8.98;3.00;;;19.80;98.20;;;;;;4938143;28;20039;-49
2023/07/02 12:36:04;;;;;;;11.48;3.28;;;19.70;98.50;;;;;;4955640;28;20046;-48